Time;durP1;ratioP1;P1;durP2;ratioP2;P2;SDS_P1;SDS_P2;PMS_P1;PMS_P2;Temp;Humidity;BMP_temperature;BMP_pressure;BME280_temperature;BME280_humidity;BME280_pressure;Samples;Min_cycle;Max_cycle;Signal;HPM_P1;HPM_P2
2022/05/03 00:02:11;;;;;;;12.57;4.88;;;6.90;99.90;;;;;;4989484;28;20507;-70
2022/05/03 00:05:00;;;;;;;16.17;4.40;;;6.90;99.90;;;;;;4988253;28;20796;-71
2022/05/03 00:07:43;;;;;;;11.77;3.80;;;6.80;99.90;;;;;;4990004;28;20068;-70
2022/05/03 00:10:13;;;;;;;10.98;4.03;;;6.80;99.90;;;;;;4987314;28;20056;-70
2022/05/03 00:12:47;;;;;;;6.38;3.25;;;6.70;99.90;;;;;;4990629;28;20060;-71
2022/05/03 00:15:18;;;;;;;9.80;3.33;;;6.50;99.90;;;;;;4992093;28;20049;-71
2022/05/03 00:17:46;;;;;;;6.25;3.00;;;6.10;99.90;;;;;;4988323;28;20061;-71
2022/05/03 00:20:12;;;;;;;8.57;2.97;;;5.80;99.90;;;;;;4987727;28;20062;-71
2022/05/03 00:22:38;;;;;;;5.80;3.22;;;5.70;99.90;;;;;;4953582;28;20053;-71
2022/05/03 00:25:05;;;;;;;8.55;3.67;;;5.40;99.90;;;;;;4988073;28;20049;-70
2022/05/03 00:27:30;;;;;;;9.05;3.72;;;5.40;99.90;;;;;;4977416;28;20046;-70
2022/05/03 00:29:58;;;;;;;12.75;4.47;;;5.70;99.90;;;;;;4986699;28;20417;-70
2022/05/03 00:32:28;;;;;;;6.43;3.63;;;5.80;99.90;;;;;;4988138;28;20056;-70
2022/05/03 00:34:58;;;;;;;9.32;4.22;;;5.90;99.90;;;;;;4991416;28;20099;-70
2022/05/03 00:37:24;;;;;;;11.98;3.95;;;5.90;99.90;;;;;;4987560;28;20134;-70
2022/05/03 00:39:50;;;;;;;7.97;4.07;;;6.00;99.90;;;;;;4990876;28;20136;-70
2022/05/03 00:42:57;;;;;;;16.65;4.50;;;5.90;99.90;;;;;;4958386;28;20077;-70
2022/05/03 00:45:34;;;;;;;7.97;3.47;;;5.90;99.90;;;;;;4971430;28;20057;-71
2022/05/03 00:48:36;;;;;;;9.75;3.97;;;5.50;99.90;;;;;;4985637;28;20034;-70
2022/05/03 00:51:12;;;;;;;9.55;4.47;;;5.30;99.90;;;;;;4985422;28;20038;-70
2022/05/03 00:54:02;;;;;;;10.60;4.03;;;5.30;99.90;;;;;;4984309;28;20508;-70
2022/05/03 00:56:42;;;;;;;9.98;4.35;;;5.20;99.90;;;;;;4990742;28;20049;-70
2022/05/03 00:59:22;;;;;;;19.65;4.93;;;5.20;99.90;;;;;;4985506;28;20045;-70
2022/05/03 01:02:04;;;;;;;13.95;4.95;;;5.30;99.90;;;;;;4984507;28;20088;-70
2022/05/03 01:05:07;;;;;;;17.50;4.55;;;5.40;99.90;;;;;;4971618;28;20111;-70
2022/05/03 01:07:40;;;;;;;12.05;4.90;;;5.40;99.90;;;;;;4986645;28;20054;-70
2022/05/03 01:10:22;;;;;;;12.15;4.07;;;5.50;99.90;;;;;;4970280;28;20410;-70
2022/05/03 01:13:04;;;;;;;11.85;4.07;;;5.50;99.90;;;;;;4986045;28;20053;-70
2022/05/03 01:15:46;;;;;;;31.25;5.45;;;5.50;99.90;;;;;;4991861;28;20046;-70
2022/05/03 01:18:25;;;;;;;10.80;4.22;;;5.60;99.90;;;;;;4974476;28;20072;-70
2022/05/03 01:21:16;;;;;;;11.70;4.03;;;5.60;99.90;;;;;;4974403;28;20056;-70
2022/05/03 01:24:19;;;;;;;11.43;4.00;;;5.60;99.90;;;;;;4986909;28;20050;-70
2022/05/03 01:27:00;;;;;;;11.35;3.65;;;5.50;99.90;;;;;;4993234;28;20132;-70
2022/05/03 01:29:34;;;;;;;7.80;3.80;;;5.20;99.90;;;;;;4974705;28;20121;-70
2022/05/03 01:32:07;;;;;;;8.65;3.35;;;5.20;99.90;;;;;;4992881;28;20423;-70
2022/05/03 01:34:34;;;;;;;12.83;5.07;;;5.20;99.90;;;;;;4992926;28;20048;-70
2022/05/03 01:37:00;;;;;;;8.77;4.57;;;5.10;99.90;;;;;;4989533;28;20513;-70
2022/05/03 01:39:58;;;;;;;11.82;4.28;;;5.10;99.90;;;;;;4994614;28;20052;-70
2022/05/03 01:42:52;;;;;;;10.43;4.28;;;5.10;99.90;;;;;;4991491;28;20052;-70
2022/05/03 01:45:31;;;;;;;8.88;4.13;;;5.20;99.90;;;;;;4988856;28;20077;-70
2022/05/03 01:51:28;;;;;;;9.93;3.97;;;5.00;99.90;;;;;;4989685;28;20144;-70
2022/05/03 01:54:17;;;;;;;8.15;3.65;;;4.80;99.90;;;;;;4990812;28;20573;-70
2022/05/03 01:57:00;;;;;;;10.02;4.28;;;4.90;99.90;;;;;;4991060;28;20185;-70
2022/05/03 01:59:38;;;;;;;10.43;4.32;;;4.80;99.90;;;;;;4971534;28;20074;-70
2022/05/03 02:02:21;;;;;;;9.00;4.78;;;4.90;99.90;;;;;;4986895;28;20045;-70
2022/05/03 02:05:05;;;;;;;10.52;4.80;;;5.00;99.90;;;;;;4976962;28;20053;-70
2022/05/03 02:07:55;;;;;;;10.73;4.43;;;4.90;99.90;;;;;;4990801;28;20050;-70
2022/05/03 02:10:30;;;;;;;9.18;4.32;;;4.90;99.90;;;;;;4967676;28;20053;-70
2022/05/03 02:13:01;;;;;;;8.68;4.00;;;4.80;99.90;;;;;;4989658;28;20065;-70
2022/05/03 02:15:49;;;;;;;14.90;5.28;;;4.80;99.90;;;;;;4973166;28;20498;-70
2022/05/03 02:18:26;;;;;;;13.90;5.35;;;4.80;99.90;;;;;;4987636;28;20068;-70
2022/05/03 02:21:25;;;;;;;10.70;4.65;;;4.80;99.90;;;;;;4971493;28;20077;-70
2022/05/03 02:23:51;;;;;;;11.13;4.78;;;5.00;99.90;;;;;;4987602;28;20596;-70
2022/05/03 02:26:44;;;;;;;9.38;4.85;;;4.90;99.90;;;;;;4988247;28;20491;-70
2022/05/03 02:29:14;;;;;;;10.23;4.45;;;4.90;99.90;;;;;;4991507;28;20033;-70
2022/05/03 02:31:56;;;;;;;10.88;4.85;;;5.00;99.90;;;;;;4990346;28;20084;-70
2022/05/03 02:34:45;;;;;;;10.95;4.82;;;4.70;99.90;;;;;;4971449;28;20050;-70
2022/05/03 02:37:37;;;;;;;10.60;4.63;;;4.80;99.90;;;;;;4992552;28;20785;-70
2022/05/03 02:40:03;;;;;;;9.75;4.70;;;4.80;99.90;;;;;;4984764;28;20081;-70
2022/05/03 02:42:29;;;;;;;16.17;5.70;;;4.80;99.90;;;;;;4990778;28;20121;-70
2022/05/03 02:45:00;;;;;;;16.15;5.68;;;5.00;99.90;;;;;;4970403;28;20479;-70
2022/05/03 02:47:26;;;;;;;12.57;5.55;;;5.00;99.90;;;;;;4992988;28;20054;-70
2022/05/03 02:50:21;;;;;;;13.48;5.55;;;5.00;99.90;;;;;;4992785;28;20870;-70
2022/05/03 02:53:08;;;;;;;9.18;4.50;;;5.00;99.90;;;;;;4987986;28;20041;-70
2022/05/03 02:55:59;;;;;;;18.85;4.97;;;4.70;99.90;;;;;;4990877;28;20069;-70
2022/05/03 02:58:57;;;;;;;18.30;4.90;;;4.60;99.90;;;;;;4988011;28;20046;-70
2022/05/03 03:02:06;;;;;;;14.45;4.95;;;4.50;99.90;;;;;;4969128;28;20144;-70
2022/05/03 03:04:39;;;;;;;17.25;5.72;;;4.50;99.90;;;;;;4987479;28;20053;-70
2022/05/03 03:07:05;;;;;;;14.75;5.03;;;4.60;99.90;;;;;;4970843;28;20042;-70
2022/05/03 03:09:47;;;;;;;13.40;5.43;;;4.60;99.90;;;;;;4984956;28;20746;-70
2022/05/03 03:12:38;;;;;;;16.48;5.47;;;4.50;99.90;;;;;;4990817;28;20057;-70
2022/05/03 03:15:07;;;;;;;14.75;4.90;;;4.30;99.90;;;;;;4989752;28;20740;-70
2022/05/03 03:17:38;;;;;;;19.10;5.43;;;4.30;99.90;;;;;;4988112;28;20096;-70
2022/05/03 03:20:07;;;;;;;14.98;5.32;;;4.40;99.90;;;;;;4990771;28;20056;-70
2022/05/03 03:22:35;;;;;;;10.48;5.05;;;4.30;99.90;;;;;;4988518;28;20049;-70
2022/05/03 03:25:03;;;;;;;14.77;5.55;;;4.40;99.90;;;;;;4986057;28;20073;-70
2022/05/03 03:27:31;;;;;;;19.05;6.25;;;4.30;99.90;;;;;;4970124;28;20494;-70
2022/05/03 03:29:58;;;;;;;10.93;5.70;;;4.30;99.90;;;;;;4969811;28;20046;-70
2022/05/03 03:32:26;;;;;;;10.07;5.63;;;4.10;99.90;;;;;;4988548;28;20048;-70
2022/05/03 03:34:56;;;;;;;12.43;5.88;;;3.90;99.90;;;;;;4991306;28;20269;-70
2022/05/03 03:37:27;;;;;;;9.65;4.57;;;4.00;99.90;;;;;;4971108;28;20061;-70
2022/05/03 03:39:52;;;;;;;9.98;4.88;;;4.10;99.90;;;;;;4989053;28;20042;-70
2022/05/03 03:42:18;;;;;;;9.65;5.72;;;4.10;99.90;;;;;;4972004;28;20446;-70
2022/05/03 03:44:46;;;;;;;9.25;5.63;;;4.20;99.90;;;;;;4989336;28;20052;-70
2022/05/03 03:47:13;;;;;;;20.05;8.48;;;4.30;99.90;;;;;;4985324;28;20053;-70
2022/05/03 03:49:39;;;;;;;14.88;7.65;;;4.40;99.90;;;;;;4989794;28;20576;-70
2022/05/03 03:52:07;;;;;;;17.75;7.63;;;4.40;99.90;;;;;;4988444;28;20049;-70
2022/05/03 03:54:35;;;;;;;12.07;7.05;;;4.50;99.90;;;;;;4988807;28;20064;-70
2022/05/03 03:57:03;;;;;;;20.63;6.63;;;4.50;99.90;;;;;;4986153;28;20046;-70
2022/05/03 03:59:31;;;;;;;12.48;5.93;;;4.40;99.90;;;;;;4992321;28;20038;-70
2022/05/03 04:01:58;;;;;;;16.98;6.15;;;4.10;99.90;;;;;;4991840;28;20445;-70
2022/05/03 04:04:28;;;;;;;9.65;5.13;;;3.90;99.90;;;;;;4970332;28;20180;-70
2022/05/03 04:06:54;;;;;;;18.30;6.70;;;3.70;99.90;;;;;;4991662;28;20060;-68
2022/05/03 04:09:20;;;;;;;17.73;6.03;;;3.80;99.90;;;;;;4988396;28;20038;-70
2022/05/03 04:11:47;;;;;;;18.88;6.57;;;3.70;99.90;;;;;;4988989;28;20120;-70
2022/05/03 04:14:13;;;;;;;17.67;6.47;;;3.80;99.90;;;;;;4989229;28;20049;-70
2022/05/03 04:16:40;;;;;;;24.88;7.93;;;3.80;99.90;;;;;;4989083;28;20041;-70
2022/05/03 04:19:05;;;;;;;22.13;7.57;;;4.00;99.90;;;;;;4989513;28;20404;-68
2022/05/03 04:21:31;;;;;;;24.27;7.10;;;4.10;99.90;;;;;;4991269;28;20052;-70
2022/05/03 04:23:57;;;;;;;15.55;6.68;;;4.20;99.90;;;;;;4991973;28;20052;-71
2022/05/03 04:26:23;;;;;;;30.48;7.65;;;4.30;99.90;;;;;;4990367;28;20042;-70
2022/05/03 04:29:02;;;;;;;17.70;7.53;;;4.40;99.90;;;;;;4970897;28;20227;-70
2022/05/03 04:31:30;;;;;;;30.30;8.32;;;4.40;99.90;;;;;;4972222;28;20046;-70
2022/05/03 04:33:56;;;;;;;20.23;7.95;;;4.50;99.90;;;;;;4991762;28;20062;-71
2022/05/03 04:36:25;;;;;;;15.23;8.07;;;4.60;99.90;;;;;;4972066;28;20153;-70
2022/05/03 04:38:51;;;;;;;24.02;8.88;;;4.60;99.90;;;;;;4987795;28;20068;-72
2022/05/03 04:41:17;;;;;;;23.55;9.18;;;4.60;99.90;;;;;;4988196;28;20056;-71
2022/05/03 04:43:43;;;;;;;14.70;8.57;;;4.80;99.90;;;;;;4988654;28;20096;-70
2022/05/03 04:46:09;;;;;;;19.20;9.65;;;4.90;99.90;;;;;;4986207;28;20546;-70
2022/05/03 04:48:35;;;;;;;22.98;8.98;;;5.60;99.90;;;;;;4987674;28;20068;-70
2022/05/03 04:51:00;;;;;;;24.75;9.57;;;6.30;99.90;;;;;;4990374;28;20053;-70
2022/05/03 04:53:26;;;;;;;23.27;9.82;;;6.00;99.90;;;;;;4992111;28;20078;-71
2022/05/03 04:55:52;;;;;;;36.05;9.95;;;6.30;99.90;;;;;;4991094;28;20088;-71
2022/05/03 04:58:17;;;;;;;25.70;9.40;;;6.30;99.90;;;;;;4971523;28;20653;-70
2022/05/03 05:00:44;;;;;;;30.42;8.43;;;6.20;99.90;;;;;;4973955;28;20057;-71
2022/05/03 05:03:09;;;;;;;27.88;8.65;;;7.20;99.90;;;;;;4991138;28;20053;-71
2022/05/03 05:05:35;;;;;;;32.05;8.63;;;8.50;99.90;;;;;;4989592;28;20095;-71
2022/05/03 05:08:05;;;;;;;20.15;7.65;;;9.30;99.90;;;;;;4989783;28;20045;-71
2022/05/03 05:10:32;;;;;;;15.60;7.93;;;10.00;99.90;;;;;;4987771;28;20091;-71
2022/05/03 05:13:02;;;;;;;40.40;8.88;;;10.80;99.90;;;;;;4992958;28;20049;-71
2022/05/03 05:15:28;;;;;;;19.92;8.35;;;11.60;99.90;;;;;;4990599;28;20046;-71
2022/05/03 05:17:58;;;;;;;31.50;9.02;;;12.10;99.90;;;;;;4991672;28;20046;-71
2022/05/03 05:20:25;;;;;;;14.80;8.10;;;12.40;99.90;;;;;;4974924;28;20050;-71
2022/05/03 05:22:51;;;;;;;23.73;9.45;;;13.00;99.90;;;;;;4971459;28;20053;-71
2022/05/03 05:25:18;;;;;;;22.38;9.30;;;13.20;99.90;;;;;;4988746;28;20057;-71
2022/05/03 05:27:44;;;;;;;17.13;8.73;;;13.30;99.90;;;;;;4988223;28;20042;-71
2022/05/03 05:30:10;;;;;;;26.48;9.70;;;13.80;99.90;;;;;;4992167;28;20053;-71
2022/05/03 05:32:37;;;;;;;22.00;9.18;;;14.10;99.90;;;;;;4971273;28;20057;-71
2022/05/03 05:35:04;;;;;;;27.77;9.18;;;14.50;99.90;;;;;;4992997;28;20049;-71
2022/05/03 05:37:31;;;;;;;33.05;10.43;;;14.60;99.90;;;;;;4974400;28;20061;-71
2022/05/03 05:39:56;;;;;;;30.67;9.32;;;14.70;99.90;;;;;;4993663;28;20080;-71
2022/05/03 05:42:22;;;;;;;19.05;8.05;;;14.80;99.90;;;;;;4992353;28;20125;-71
2022/05/03 05:44:48;;;;;;;22.20;8.40;;;14.70;99.90;;;;;;4990467;28;20042;-71
2022/05/03 05:47:14;;;;;;;14.77;9.00;;;13.70;99.90;;;;;;4980226;28;20143;-71
2022/05/03 05:49:40;;;;;;;19.08;8.80;;;12.90;99.90;;;;;;4992122;28;20053;-71
2022/05/03 05:54:50;;;;;;;;;;;13.00;99.90;;;;;;4975247;28;20045;-71
2022/05/03 05:57:16;;;;;;;19.27;7.82;;;12.70;99.90;;;;;;4991357;28;19925;-71
2022/05/03 05:59:42;;;;;;;29.38;9.45;;;12.70;99.90;;;;;;4997588;28;20132;-71
2022/05/03 06:02:08;;;;;;;16.63;8.98;;;12.60;99.90;;;;;;4989951;28;20042;-70
2022/05/03 06:04:33;;;;;;;19.27;9.30;;;12.60;99.90;;;;;;4990829;28;20050;-71
2022/05/03 06:06:59;;;;;;;25.65;10.25;;;12.40;99.90;;;;;;4988476;28;20523;-71
2022/05/03 06:09:25;;;;;;;27.63;10.93;;;12.80;99.90;;;;;;4991474;28;20246;-71
2022/05/03 06:11:51;;;;;;;23.77;12.13;;;13.10;99.90;;;;;;4972079;28;20452;-71
2022/05/03 06:14:17;;;;;;;40.95;11.85;;;13.00;99.90;;;;;;4992728;28;20573;-71
2022/05/03 06:16:50;;;;;;;34.35;12.77;;;13.00;99.90;;;;;;4989408;28;20217;-71
2022/05/03 06:19:16;;;;;;;20.77;11.95;;;13.40;99.90;;;;;;4987301;28;20065;-71
2022/05/03 06:21:42;;;;;;;35.95;14.07;;;13.40;99.90;;;;;;4991601;28;20049;-71
2022/05/03 06:24:08;;;;;;;23.88;14.20;;;13.70;99.90;;;;;;4988982;28;20038;-71
2022/05/03 06:26:35;;;;;;;27.83;15.27;;;13.70;99.90;;;;;;4979031;28;20471;-71
2022/05/03 06:29:06;;;;;;;22.13;15.10;;;13.30;99.90;;;;;;4988906;28;20049;-71
2022/05/03 06:31:44;;;;;;;21.08;15.02;;;13.50;99.90;;;;;;4991023;28;20134;-71
2022/05/03 06:34:11;;;;;;;21.75;16.35;;;13.70;99.90;;;;;;4972995;28;20144;-71
2022/05/03 06:36:38;;;;;;;23.98;16.25;;;13.70;99.90;;;;;;4972207;28;20049;-71
2022/05/03 06:39:06;;;;;;;20.73;16.40;;;13.90;99.90;;;;;;4988228;28;20042;-71
2022/05/03 06:41:33;;;;;;;22.40;17.25;;;13.70;99.90;;;;;;4987361;28;20230;-71
2022/05/03 06:43:58;;;;;;;24.58;19.98;;;14.00;99.90;;;;;;4990201;28;20052;-72
2022/05/03 06:46:25;;;;;;;23.13;20.17;;;13.70;99.90;;;;;;4972892;28;20057;-71
2022/05/03 06:48:51;;;;;;;26.33;21.67;;;14.40;99.90;;;;;;4987765;28;20751;-71
2022/05/03 06:51:17;;;;;;;26.80;21.38;;;14.40;99.90;;;;;;4988217;28;20046;-71
2022/05/03 06:53:43;;;;;;;33.97;23.83;;;14.30;99.90;;;;;;4988767;28;20123;-71
2022/05/03 06:56:09;;;;;;;26.65;21.55;;;13.70;99.90;;;;;;4989956;28;20075;-71
2022/05/03 06:58:35;;;;;;;26.63;22.90;;;13.50;99.90;;;;;;4990658;28;20030;-72
2022/05/03 07:01:09;;;;;;;27.75;23.92;;;13.60;99.90;;;;;;4991416;28;20056;-71
2022/05/03 07:03:38;;;;;;;28.30;24.95;;;13.80;99.90;;;;;;4971355;28;20061;-71
2022/05/03 07:06:07;;;;;;;28.02;24.98;;;13.80;99.90;;;;;;4973999;28;20160;-71
2022/05/03 07:08:34;;;;;;;29.77;23.23;;;13.60;99.90;;;;;;4988612;28;20046;-72
2022/05/03 07:11:00;;;;;;;38.92;26.67;;;13.80;99.90;;;;;;4987309;28;20049;-71
2022/05/03 07:13:26;;;;;;;30.60;26.23;;;14.20;99.90;;;;;;4971384;28;20048;-71
2022/05/03 07:15:53;;;;;;;32.08;26.83;;;14.30;99.90;;;;;;4970100;28;20056;-71
2022/05/03 07:23:49;;;;;;;29.77;24.98;;;13.30;99.90;;;;;;4958294;28;20517;-72
2022/05/03 07:26:15;;;;;;;31.15;25.73;;;14.20;99.90;;;;;;4989237;28;20503;-71
2022/05/03 07:28:41;;;;;;;74.50;27.08;;;14.50;99.90;;;;;;4990824;28;20865;-71
2022/05/03 07:31:08;;;;;;;30.20;25.27;;;15.00;99.90;;;;;;4990527;28;20053;-72
2022/05/03 07:33:34;;;;;;;36.90;23.90;;;14.30;99.90;;;;;;4990452;28;20184;-72
2022/05/03 07:36:00;;;;;;;30.92;24.88;;;14.50;99.90;;;;;;4993567;28;20093;-72
2022/05/03 07:38:26;;;;;;;34.67;27.02;;;14.40;99.90;;;;;;4990005;28;20042;-72
2022/05/03 07:40:51;;;;;;;34.53;25.42;;;15.00;99.90;;;;;;4973330;28;20920;-72
2022/05/03 07:43:17;;;;;;;31.48;26.48;;;14.70;99.90;;;;;;4989135;28;20107;-72
2022/05/03 07:45:43;;;;;;;28.45;23.88;;;14.50;99.90;;;;;;4991509;28;20046;-71
2022/05/03 07:48:08;;;;;;;31.42;26.63;;;14.10;99.90;;;;;;4992762;28;20096;-72
2022/05/03 07:50:34;;;;;;;30.77;23.90;;;13.70;99.90;;;;;;4970768;28;20398;-72
2022/05/03 07:53:00;;;;;;;26.20;20.73;;;14.00;99.90;;;;;;4991117;28;20042;-72
2022/05/03 07:55:26;;;;;;;28.30;21.63;;;13.70;99.90;;;;;;4976166;28;20049;-72
2022/05/03 07:57:52;;;;;;;30.60;21.23;;;13.90;99.90;;;;;;4990436;28;20050;-72
2022/05/03 08:00:18;;;;;;;30.67;22.77;;;14.00;99.90;;;;;;4992324;28;20380;-71
2022/05/03 08:02:43;;;;;;;29.48;20.20;;;13.90;99.90;;;;;;4990052;28;20439;-72
2022/05/03 08:05:09;;;;;;;29.70;21.42;;;14.30;99.90;;;;;;4985358;28;20042;-72
2022/05/03 08:07:35;;;;;;;29.58;20.95;;;14.30;99.90;;;;;;4982786;28;20089;-72
2022/05/03 08:10:03;;;;;;;28.13;19.08;;;13.80;99.90;;;;;;4960506;28;20168;-72
2022/05/03 08:12:28;;;;;;;28.70;19.33;;;13.70;99.90;;;;;;4985673;28;20108;-72
2022/05/03 08:14:56;;;;;;;33.60;19.35;;;13.80;99.90;;;;;;4984847;28;20046;-72
2022/05/03 08:17:25;;;;;;;32.05;21.13;;;13.80;99.90;;;;;;4988340;28;20522;-72
2022/05/03 08:19:51;;;;;;;29.38;20.08;;;13.80;99.90;;;;;;4973207;28;20046;-72
2022/05/03 08:22:16;;;;;;;34.13;21.80;;;13.90;99.90;;;;;;4971686;28;20053;-71
2022/05/03 08:24:42;;;;;;;31.40;21.63;;;13.80;99.90;;;;;;4972508;28;20148;-72
2022/05/03 08:27:08;;;;;;;34.78;21.77;;;13.80;99.90;;;;;;4978156;28;20054;-72
2022/05/03 08:29:34;;;;;;;34.45;20.58;;;13.70;99.90;;;;;;4951893;28;21276;-72
2022/05/03 08:32:01;;;;;;;34.55;22.75;;;13.70;99.90;;;;;;4974824;28;20046;-72
2022/05/03 08:34:27;;;;;;;39.10;22.48;;;13.70;99.90;;;;;;4991432;28;20050;-72
2022/05/03 08:42:23;;;;;;;32.25;21.77;;;13.30;99.90;;;;;;4993648;28;20523;-72
2022/05/03 08:44:49;;;;;;;34.53;24.48;;;13.40;99.90;;;;;;4990780;28;20081;-72
2022/05/03 08:47:18;;;;;;;35.15;25.45;;;13.70;99.90;;;;;;4995779;28;20128;-72
2022/05/03 08:49:52;;;;;;;33.65;24.17;;;13.70;99.90;;;;;;4975442;28;20058;-72
2022/05/03 08:52:21;;;;;;;34.85;24.67;;;13.80;99.90;;;;;;4974269;28;20879;-72
2022/05/03 08:54:47;;;;;;;39.60;27.08;;;13.60;99.90;;;;;;4995764;28;20132;-70
2022/05/03 08:57:13;;;;;;;36.75;24.48;;;13.30;99.90;;;;;;4989489;28;20175;-72
2022/05/03 08:59:40;;;;;;;41.67;27.15;;;13.40;99.90;;;;;;4990057;28;20038;-72
2022/05/03 09:02:05;;;;;;;42.67;27.88;;;13.40;99.90;;;;;;4992602;28;20120;-72
2022/05/03 09:04:31;;;;;;;42.83;28.20;;;13.40;99.90;;;;;;4989852;28;20496;-72
2022/05/03 09:06:57;;;;;;;43.58;28.45;;;13.20;99.90;;;;;;4971854;28;20921;-72
2022/05/03 09:09:24;;;;;;;49.33;30.27;;;13.20;99.90;;;;;;4986960;28;20038;-72
2022/05/03 09:11:53;;;;;;;50.63;29.67;;;13.20;99.90;;;;;;4971172;28;20060;-72
2022/05/03 09:14:39;;;;;;;53.42;30.35;;;13.20;99.90;;;;;;4984316;28;20415;-72
2022/05/03 09:17:06;;;;;;;50.55;29.55;;;13.30;99.90;;;;;;4989984;28;20057;-72
2022/05/03 09:19:32;;;;;;;56.90;31.48;;;13.00;99.90;;;;;;4989558;28;20050;-72
2022/05/03 09:25:04;;;;;;;54.28;29.33;;;13.20;99.90;;;;;;4990038;28;20053;-72
2022/05/03 09:27:32;;;;;;;59.30;31.95;;;13.20;99.90;;;;;;4972255;28;20089;-72
2022/05/03 09:30:19;;;;;;;59.70;32.47;;;13.10;99.90;;;;;;4974340;28;20093;-72
2022/05/03 09:32:47;;;;;;;61.80;30.88;;;12.90;99.90;;;;;;4992113;28;20049;-71
2022/05/03 09:35:34;;;;;;;63.15;32.95;;;13.10;99.90;;;;;;4977297;28;20093;-72
2022/05/03 09:38:03;;;;;;;53.38;29.13;;;13.10;99.90;;;;;;4988640;28;20045;-71
2022/05/03 09:40:35;;;;;;;50.20;28.88;;;13.10;99.90;;;;;;4990833;28;20089;-72
2022/05/03 09:43:01;;;;;;;51.38;29.80;;;13.20;99.90;;;;;;4974188;28;20377;-72
2022/05/03 09:45:27;;;;;;;48.15;28.52;;;12.90;99.90;;;;;;4987876;28;20104;-72
2022/05/03 09:47:56;;;;;;;47.00;29.55;;;12.70;99.90;;;;;;4990783;28;20531;-72
2022/05/03 09:50:37;;;;;;;44.03;26.20;;;12.70;99.90;;;;;;4992381;28;20650;-72
2022/05/03 09:53:10;;;;;;;36.22;24.02;;;12.60;99.90;;;;;;4983718;28;20113;-71
2022/05/03 09:55:37;;;;;;;35.03;23.00;;;12.50;99.90;;;;;;4983999;28;20568;-72
2022/05/03 09:58:06;;;;;;;31.80;21.52;;;12.80;99.90;;;;;;4987936;28;20158;-72
2022/05/03 10:00:34;;;;;;;31.05;21.38;;;12.60;99.90;;;;;;4987702;28;20050;-72
2022/05/03 10:03:01;;;;;;;36.53;19.88;;;12.60;99.90;;;;;;4988410;28;20760;-72
2022/05/03 10:05:27;;;;;;;29.35;19.98;;;12.80;99.90;;;;;;4970516;28;20057;-71
2022/05/03 10:07:53;;;;;;;33.95;20.50;;;12.70;99.90;;;;;;4993573;28;20187;-72
2022/05/03 10:10:21;;;;;;;28.50;17.95;;;12.90;99.90;;;;;;4986643;28;20045;-72
2022/05/03 10:12:49;;;;;;;23.95;11.73;;;12.70;99.90;;;;;;4970184;28;20049;-72
2022/05/03 10:21:00;;;;;;;27.45;9.63;;;12.60;99.90;;;;;;4991444;28;20068;-72
2022/05/03 10:23:28;;;;;;;17.40;9.63;;;13.00;99.90;;;;;;4992356;28;20042;-72
2022/05/03 10:25:58;;;;;;;14.90;7.97;;;12.90;99.90;;;;;;4970052;28;20427;-72
2022/05/03 10:28:25;;;;;;;22.77;9.82;;;12.90;99.90;;;;;;4989216;28;20038;-72
2022/05/03 10:31:11;;;;;;;13.93;8.07;;;12.90;99.90;;;;;;4989959;28;20057;-72
2022/05/03 10:33:38;;;;;;;26.38;8.85;;;13.00;99.90;;;;;;4991859;28;20092;-72
2022/05/03 10:36:29;;;;;;;13.82;7.47;;;13.10;99.90;;;;;;4991396;28;20049;-72
2022/05/03 10:39:03;;;;;;;11.02;6.90;;;13.20;99.90;;;;;;4970622;28;20081;-72
2022/05/03 10:41:29;;;;;;;16.38;7.03;;;13.20;99.90;;;;;;4974832;28;20141;-72
2022/05/03 10:43:55;;;;;;;14.60;7.18;;;13.30;99.90;;;;;;4990995;28;20682;-71
2022/05/03 10:46:22;;;;;;;17.05;7.65;;;13.20;99.90;;;;;;4968503;28;20062;-72
2022/05/03 10:49:20;;;;;;;17.33;7.95;;;13.10;99.90;;;;;;4968894;28;20415;-72
2022/05/03 10:51:45;;;;;;;16.40;7.45;;;13.20;99.90;;;;;;4974385;28;20066;-72
2022/05/03 10:54:11;;;;;;;14.18;7.45;;;13.30;99.90;;;;;;4972511;28;20049;-72
2022/05/03 10:57:03;;;;;;;16.02;7.45;;;13.30;99.90;;;;;;4992360;28;20124;-72
2022/05/03 10:59:48;;;;;;;14.23;7.40;;;13.40;99.90;;;;;;4989661;28;20045;-72
2022/05/03 11:02:14;;;;;;;20.13;8.10;;;13.00;99.90;;;;;;4986275;28;20203;-72
2022/05/03 11:05:16;;;;;;;18.95;8.32;;;13.20;99.90;;;;;;4988457;28;20053;-72
2022/05/03 11:08:15;;;;;;;16.27;7.78;;;13.60;99.90;;;;;;4987647;28;20108;-72
2022/05/03 11:10:42;;;;;;;16.88;7.57;;;13.60;99.90;;;;;;4972721;28;20054;-72
2022/05/03 11:13:40;;;;;;;15.10;7.28;;;13.80;99.90;;;;;;4991307;28;20058;-72
2022/05/03 11:16:26;;;;;;;15.80;7.05;;;13.80;99.90;;;;;;4981677;28;20452;-72
2022/05/03 11:18:53;;;;;;;12.02;7.10;;;13.70;99.90;;;;;;4973784;28;20084;-72
2022/05/03 11:21:19;;;;;;;17.00;7.03;;;13.70;99.90;;;;;;4988005;28;20049;-72
2022/05/03 11:23:53;;;;;;;16.58;7.00;;;14.00;99.90;;;;;;4991101;28;20048;-72
2022/05/03 11:26:25;;;;;;;20.73;7.22;;;13.80;99.90;;;;;;4990612;28;20520;-72
2022/05/03 11:28:52;;;;;;;19.60;7.30;;;13.90;99.90;;;;;;4969853;28;20093;-72
2022/05/03 11:31:20;;;;;;;21.35;7.57;;;13.70;99.90;;;;;;4986644;28;20041;-72
2022/05/03 11:33:55;;;;;;;18.83;7.20;;;13.70;99.90;;;;;;4988287;28;20065;-72
2022/05/03 11:36:21;;;;;;;17.48;7.97;;;13.50;99.90;;;;;;4988641;28;20049;-72
2022/05/03 11:38:48;;;;;;;20.98;8.10;;;13.70;99.90;;;;;;4969186;28;20081;-71
2022/05/03 11:41:14;;;;;;;30.77;7.72;;;13.90;99.90;;;;;;4987197;28;20677;-71
2022/05/03 11:43:40;;;;;;;22.10;7.28;;;13.80;99.90;;;;;;4989633;28;20069;-71
2022/05/03 11:46:07;;;;;;;21.05;7.90;;;13.20;99.90;;;;;;4988407;28;20157;-71
2022/05/03 11:48:35;;;;;;;20.05;7.07;;;13.80;99.90;;;;;;4988885;28;20042;-71
2022/05/03 11:56:29;;;;;;;16.27;6.30;;;13.70;99.90;;;;;;4986350;28;20046;-71
2022/05/03 11:58:55;;;;;;;18.88;5.88;;;13.50;99.90;;;;;;4986540;28;20042;-71
2022/05/03 12:01:23;;;;;;;15.50;5.97;;;13.70;99.90;;;;;;4986580;28;20556;-71
2022/05/03 12:03:58;;;;;;;20.73;7.35;;;13.80;99.90;;;;;;4984450;28;20065;-71
2022/05/03 12:06:43;;;;;;;18.60;5.75;;;14.00;99.90;;;;;;4985401;28;20634;-71
2022/05/03 12:09:35;;;;;;;53.25;8.40;;;13.90;99.90;;;;;;4984662;28;20077;-71
2022/05/03 12:14:45;;;;;;;15.98;5.57;;;14.30;99.90;;;;;;4967826;28;20140;-71
2022/05/03 12:17:11;;;;;;;13.27;5.63;;;14.20;99.90;;;;;;4985888;28;20048;-71
2022/05/03 12:19:38;;;;;;;16.13;6.22;;;14.40;99.90;;;;;;4970413;28;20054;-71
2022/05/03 12:22:12;;;;;;;14.57;5.82;;;14.70;99.90;;;;;;4949783;28;20155;-71
2022/05/03 12:24:41;;;;;;;15.60;5.50;;;14.50;99.90;;;;;;4967696;28;20092;-71
2022/05/03 12:27:14;;;;;;;17.25;5.80;;;14.40;99.90;;;;;;4964275;28;20054;-71
2022/05/03 12:29:45;;;;;;;13.03;5.13;;;14.60;99.90;;;;;;4948910;28;20050;-71
2022/05/03 12:32:18;;;;;;;15.40;5.07;;;15.30;99.90;;;;;;4949723;28;20482;-71
2022/05/03 12:34:59;;;;;;;12.43;4.88;;;15.10;99.90;;;;;;4967552;28;20049;-71
2022/05/03 12:37:25;;;;;;;15.30;5.00;;;15.30;99.90;;;;;;4947979;28;20061;-70
2022/05/03 12:39:51;;;;;;;12.60;4.78;;;15.00;99.90;;;;;;4949103;28;20054;-71
2022/05/03 12:42:16;;;;;;;13.07;4.80;;;15.00;99.90;;;;;;4969049;28;20060;-71
2022/05/03 12:44:52;;;;;;;14.88;4.72;;;15.00;99.90;;;;;;4964891;28;20054;-71
2022/05/03 12:47:19;;;;;;;19.65;6.25;;;15.20;99.90;;;;;;4970004;28;20052;-71
2022/05/03 12:49:45;;;;;;;17.08;5.35;;;15.10;99.90;;;;;;4965976;28;20118;-71
2022/05/03 12:52:11;;;;;;;15.73;5.07;;;15.60;99.90;;;;;;4971010;28;20060;-71
2022/05/03 12:54:51;;;;;;;13.65;4.95;;;15.20;99.90;;;;;;4971673;28;20049;-71
2022/05/03 13:00:03;;;;;;;;;;;15.20;99.90;;;;;;4974254;28;20046;-71
2022/05/03 13:02:28;;;;;;;16.42;4.55;;;15.10;99.90;;;;;;4969027;28;19932;-71
2022/05/03 13:04:54;;;;;;;14.95;5.10;;;14.90;99.90;;;;;;4972084;28;20058;-71
2022/05/03 13:07:21;;;;;;;14.40;4.32;;;14.90;99.90;;;;;;4969573;28;20671;-71
2022/05/03 13:09:47;;;;;;;13.57;4.38;;;15.10;99.90;;;;;;4935531;28;20124;-71
2022/05/03 13:12:12;;;;;;;16.90;4.95;;;14.90;99.90;;;;;;4952786;28;20054;-71
2022/05/03 13:14:39;;;;;;;15.32;4.93;;;15.40;99.90;;;;;;4970134;28;20046;-71
2022/05/03 13:17:05;;;;;;;13.77;3.97;;;14.90;99.90;;;;;;4976602;28;20082;-71
2022/05/03 13:19:32;;;;;;;12.20;3.75;;;14.90;99.90;;;;;;4973460;28;20081;-71
2022/05/03 13:21:58;;;;;;;13.25;4.15;;;15.10;99.90;;;;;;5001621;28;20049;-71
2022/05/03 13:24:24;;;;;;;16.33;4.13;;;15.30;99.90;;;;;;4993531;28;20048;-71
2022/05/03 13:26:50;;;;;;;14.35;4.43;;;15.50;99.90;;;;;;4990955;28;20053;-72
2022/05/03 13:29:19;;;;;;;13.10;4.50;;;15.80;99.90;;;;;;4991259;28;20088;-71
2022/05/03 13:31:45;;;;;;;13.88;4.10;;;15.50;99.90;;;;;;4988141;28;20054;-71
2022/05/03 13:34:12;;;;;;;8.20;3.58;;;15.30;99.90;;;;;;4990801;28;20197;-71
2022/05/03 13:42:09;;;;;;;37.45;4.90;;;15.30;99.90;;;;;;4989979;28;20045;-72